Terminal Aerodrome Forecast
Issued by NWS

Home | Current Version | Previous Version | Text Only | Print | Product List | Glossary On
Versions: 1 2 3 4 5 6 7 8 9 10 11 12 13 14 15 16
000
FTUS43 KICT 240540
TAFRSL
TAF
KRSL 240540Z 2406/2506 33017G22KT P6SM OVC012
     FM241500 33022G26KT P6SM OVC025
     FM241800 35022G26KT P6SM OVC035
     FM242300 35017KT P6SM BKN040=

USA.gov is the U.S. government's official web portal to all federal, state and local government web resources and services.